createdAt,value
2023-01-03T00:00:26.080Z,8.11
2023-01-03T00:00:57.587Z,8.00
2023-01-03T00:01:29.472Z,8.00
2023-01-03T00:02:02.397Z,7.88
2023-01-03T00:02:33.434Z,7.88
2023-01-03T00:03:05.801Z,7.88
2023-01-03T00:03:37.522Z,7.77
2023-01-03T00:04:09.360Z,7.77
2023-01-03T00:04:47.413Z,7.72
2023-01-03T00:04:57.466Z,7.72
2023-01-03T00:05:41.595Z,7.72
2023-01-03T00:06:13.509Z,7.72
2023-01-03T00:06:45.142Z,7.72
2023-01-03T00:07:17.146Z,7.72
2023-01-03T00:07:49.269Z,7.72
2023-01-03T00:08:21.224Z,7.72
2023-01-03T00:08:53.382Z,7.72
2023-01-03T00:09:25.353Z,7.72
2023-01-03T00:09:57.056Z,7.72
2023-01-03T00:10:29.366Z,7.72
2023-01-03T00:11:01.584Z,7.72
2023-01-03T00:11:33.003Z,7.72
2023-01-03T00:12:05.515Z,7.72
2023-01-03T00:12:37.089Z,7.72
2023-01-03T00:13:08.973Z,7.72
2023-01-03T00:13:40.932Z,7.72
2023-01-03T00:14:12.972Z,7.72
2023-01-03T00:14:44.991Z,7.72
2023-01-03T00:15:17.896Z,7.61
2023-01-03T00:15:48.845Z,7.61
2023-01-03T00:16:20.919Z,7.61
2023-01-03T00:16:53.324Z,7.50
2023-01-03T00:17:24.827Z,7.50
2023-01-03T00:17:56.802Z,7.50
2023-01-03T00:18:28.858Z,7.38
2023-01-03T00:19:00.914Z,7.38
2023-01-03T00:19:32.714Z,7.38
2023-01-03T00:20:05.309Z,7.38
2023-01-03T00:20:36.654Z,7.38
2023-01-03T00:21:08.778Z,7.38
2023-01-03T00:21:40.528Z,7.38
2023-01-03T00:21:56.775Z,7.38
2023-01-03T00:22:40.607Z,7.50
2023-01-03T00:22:56.811Z,7.50
2023-01-03T00:23:40.603Z,7.50
2023-01-03T00:24:12.706Z,7.50
2023-01-03T00:24:44.422Z,7.50
2023-01-03T00:25:16.721Z,7.50
2023-01-03T00:25:48.501Z,7.50
2023-01-03T00:26:20.489Z,7.50
2023-01-03T00:26:52.512Z,7.50
2023-01-03T00:27:24.564Z,7.50
2023-01-03T00:27:56.518Z,7.50
2023-01-03T00:28:28.410Z,7.50
2023-01-03T00:29:00.179Z,7.50
2023-01-03T00:29:32.399Z,7.38
2023-01-03T00:30:06.537Z,7.38
2023-01-03T00:30:36.339Z,7.38
2023-01-03T00:31:08.224Z,7.38
2023-01-03T00:31:40.236Z,7.38
2023-01-03T00:32:12.194Z,7.38
2023-01-03T00:32:44.265Z,7.38
2023-01-03T00:33:16.205Z,7.38
2023-01-03T00:33:47.992Z,7.38
2023-01-03T00:34:20.186Z,7.38
2023-01-03T00:34:52.181Z,7.38
2023-01-03T00:35:24.294Z,7.38
2023-01-03T00:35:56.102Z,7.38
2023-01-03T00:36:12.131Z,7.38
2023-01-03T00:36:44.018Z,7.38
2023-01-03T00:37:28.150Z,7.38
2023-01-03T00:37:59.810Z,7.38
2023-01-03T00:38:16.239Z,7.38
2023-01-03T00:38:47.806Z,7.38
2023-01-03T00:39:32.096Z,7.27
2023-01-03T00:40:04.684Z,7.27
2023-01-03T00:40:35.739Z,7.27
2023-01-03T00:41:07.816Z,7.27
2023-01-03T00:41:39.814Z,7.27
2023-01-03T00:42:11.964Z,7.27
2023-01-03T00:42:43.767Z,7.27
2023-01-03T00:43:15.777Z,7.22
2023-01-03T00:43:47.776Z,7.22
2023-01-03T00:44:19.736Z,7.22
2023-01-03T00:44:51.579Z,7.22
2023-01-03T00:45:25.767Z,7.22
2023-01-03T00:45:55.793Z,7.22
2023-01-03T00:46:27.896Z,7.22
2023-01-03T00:46:59.438Z,7.22
2023-01-03T00:47:31.605Z,7.22
2023-01-03T00:48:04.299Z,7.22
2023-01-03T00:48:35.609Z,7.22
2023-01-03T00:49:07.415Z,7.22
2023-01-03T00:49:39.446Z,7.11
2023-01-03T00:50:11.798Z,7.11
2023-01-03T00:50:43.566Z,7.11
2023-01-03T00:51:15.212Z,7.11
2023-01-03T00:51:47.476Z,7.11
2023-01-03T00:52:19.411Z,7.11
2023-01-03T00:52:51.357Z,7.22
2023-01-03T00:53:23.419Z,7.22
2023-01-03T00:53:55.379Z,7.22
2023-01-03T00:54:27.274Z,7.11
2023-01-03T00:54:59.359Z,7.11
2023-01-03T00:55:31.572Z,7.11
2023-01-03T00:56:03.917Z,7.11
2023-01-03T00:56:35.254Z,7.11
2023-01-03T00:57:07.243Z,7.11
2023-01-03T00:57:39.057Z,7.11
2023-01-03T00:57:55.384Z,7.11
2023-01-03T00:58:39.100Z,7.11
2023-01-03T00:59:11.065Z,7.11
2023-01-03T00:59:43.118Z,7.11
2023-01-03T01:00:15.980Z,7.11
2023-01-03T01:00:47.049Z,7.11
2023-01-03T01:01:19.253Z,7.11
2023-01-03T01:01:50.945Z,7.11
2023-01-03T01:02:23.296Z,7.11
2023-01-03T01:02:55.335Z,7.11
2023-01-03T01:03:27.199Z,7.11
2023-01-03T01:03:58.822Z,7.11
2023-01-03T01:04:30.863Z,7.11
2023-01-03T01:05:04.402Z,7.11
2023-01-03T01:05:34.915Z,7.22
2023-01-03T01:06:06.555Z,7.22
2023-01-03T01:06:38.817Z,7.11
2023-01-03T01:07:10.817Z,7.11
2023-01-03T01:07:42.775Z,7.22
2023-01-03T01:08:14.771Z,7.22
2023-01-03T01:08:46.793Z,7.22
2023-01-03T01:09:18.539Z,7.22
2023-01-03T01:09:50.891Z,7.22
2023-01-03T01:10:22.959Z,7.22
2023-01-03T01:10:54.536Z,7.22
2023-01-03T01:11:10.685Z,7.22
2023-01-03T01:11:42.461Z,7.22
2023-01-03T01:12:26.668Z,7.22
2023-01-03T01:12:58.391Z,7.22
2023-01-03T01:13:14.655Z,7.22
2023-01-03T01:13:46.573Z,7.22
2023-01-03T01:14:30.393Z,7.22
2023-01-03T01:15:06.108Z,7.22
2023-01-03T01:15:34.374Z,7.22
2023-01-03T01:16:06.427Z,7.22
2023-01-03T01:16:38.351Z,7.22
2023-01-03T01:17:12.287Z,7.22
2023-01-03T01:17:43.795Z,7.11
2023-01-03T01:18:14.431Z,7.11
2023-01-03T01:18:46.252Z,7.00
2023-01-03T01:19:18.339Z,7.00
2023-01-03T01:19:50.137Z,7.00
2023-01-03T01:20:22.502Z,7.00
2023-01-03T01:20:54.371Z,7.00
2023-01-03T01:21:26.199Z,7.00
2023-01-03T01:21:58.042Z,6.88
2023-01-03T01:22:30.039Z,6.88
2023-01-03T01:23:03.109Z,6.88
2023-01-03T01:23:34.098Z,6.88
2023-01-03T01:24:06.129Z,6.77
2023-01-03T01:24:38.074Z,6.77
2023-01-03T01:25:10.303Z,6.77
2023-01-03T01:25:42.272Z,6.72
2023-01-03T01:26:13.941Z,6.72
2023-01-03T01:26:45.939Z,6.72
2023-01-03T01:27:18.004Z,6.72
2023-01-03T01:27:49.906Z,6.72
2023-01-03T01:28:22.007Z,6.72
2023-01-03T01:28:54.074Z,6.72
2023-01-03T01:29:25.980Z,6.72
2023-01-03T01:29:57.865Z,6.72
2023-01-03T01:30:30.191Z,6.72
2023-01-03T01:31:02.753Z,6.72
2023-01-03T01:31:33.740Z,6.72
2023-01-03T01:32:05.956Z,6.72
2023-01-03T01:32:37.789Z,6.72
2023-01-03T01:32:54.049Z,6.72
2023-01-03T01:33:37.674Z,6.72
2023-01-03T01:34:09.628Z,6.72
2023-01-03T01:34:41.945Z,6.72
2023-01-03T01:35:13.941Z,6.72
2023-01-03T01:35:45.501Z,6.72
2023-01-03T01:36:17.708Z,6.72
2023-01-03T01:36:49.657Z,6.72
2023-01-03T01:37:21.504Z,6.72
2023-01-03T01:37:53.781Z,6.72
2023-01-03T01:38:25.610Z,6.72
2023-01-03T01:38:57.484Z,6.72
2023-01-03T01:39:29.344Z,6.72
2023-01-03T01:40:03.030Z,6.72
2023-01-03T01:40:33.579Z,6.72
2023-01-03T01:41:05.745Z,6.72
2023-01-03T01:41:37.192Z,6.72
2023-01-03T01:41:53.552Z,6.72
2023-01-03T01:42:30.513Z,6.72
2023-01-03T01:42:41.420Z,6.72
2023-01-03T01:43:13.352Z,6.72
2023-01-03T01:43:45.239Z,6.72
2023-01-03T01:44:17.261Z,6.72
2023-01-03T01:44:49.190Z,6.72
2023-01-03T01:45:21.608Z,6.72
2023-01-03T01:45:53.205Z,6.72
2023-01-03T01:46:09.173Z,6.72
2023-01-03T01:46:41.321Z,6.72
2023-01-03T01:47:25.093Z,6.72
2023-01-03T01:47:57.177Z,6.72
2023-01-03T01:48:28.920Z,6.72
2023-01-03T01:49:01.070Z,6.72
2023-01-03T01:49:33.231Z,6.72
2023-01-03T01:50:05.727Z,6.72
2023-01-03T01:50:36.790Z,6.61
2023-01-03T01:50:53.539Z,6.61
2023-01-03T01:51:36.861Z,6.61
2023-01-03T01:52:09.058Z,6.61
2023-01-03T01:52:40.939Z,6.61
2023-01-03T01:53:12.921Z,6.61
2023-01-03T01:53:44.934Z,6.61
2023-01-03T01:54:16.877Z,6.61
2023-01-03T01:54:48.834Z,6.61
2023-01-03T01:55:20.918Z,6.61
2023-01-03T01:55:52.884Z,6.61
2023-01-03T01:56:24.856Z,6.61
2023-01-03T01:56:56.830Z,6.50
2023-01-03T01:57:28.550Z,6.50
2023-01-03T01:58:00.724Z,6.50
2023-01-03T01:58:32.849Z,6.50
2023-01-03T01:59:04.766Z,6.50
2023-01-03T01:59:36.429Z,6.50
2023-01-03T01:59:52.836Z,6.50
2023-01-03T02:00:24.940Z,6.38
2023-01-03T02:00:40.632Z,6.38
2023-01-03T02:01:12.690Z,6.38
2023-01-03T02:01:44.700Z,6.38
2023-01-03T02:02:16.698Z,6.27
2023-01-03T02:02:48.585Z,6.27
2023-01-03T02:03:20.324Z,6.27
2023-01-03T02:03:52.498Z,6.27
2023-01-03T02:04:24.493Z,6.27
2023-01-03T02:04:56.475Z,6.27
2023-01-03T02:05:28.459Z,6.27
2023-01-03T02:06:00.353Z,6.27
2023-01-03T02:06:32.630Z,6.27
2023-01-03T02:07:04.509Z,6.27
2023-01-03T02:07:36.278Z,6.27
2023-01-03T02:07:52.544Z,6.27
2023-01-03T02:08:36.138Z,6.38
2023-01-03T02:09:08.252Z,6.38
2023-01-03T02:09:40.121Z,6.38
2023-01-03T02:10:12.459Z,6.27
2023-01-03T02:10:44.060Z,6.27
2023-01-03T02:11:16.152Z,6.27
2023-01-03T02:11:48.141Z,6.27
2023-01-03T02:12:19.900Z,6.27
2023-01-03T02:12:51.968Z,6.22
2023-01-03T02:13:24.257Z,6.22
2023-01-03T02:13:55.993Z,6.22
2023-01-03T02:14:27.851Z,6.22
2023-01-03T02:14:59.869Z,6.22
2023-01-03T02:15:32.485Z,6.22
2023-01-03T02:16:04.468Z,6.22
2023-01-03T02:16:35.892Z,6.22
2023-01-03T02:17:07.815Z,6.22
2023-01-03T02:17:24.208Z,6.22
2023-01-03T02:18:07.950Z,6.22
2023-01-03T02:18:39.857Z,6.22
2023-01-03T02:19:11.962Z,6.22
2023-01-03T02:19:43.749Z,6.22
2023-01-03T02:20:16.177Z,6.22
2023-01-03T02:20:47.815Z,6.22
2023-01-03T02:21:20.300Z,6.22
2023-01-03T02:21:51.701Z,6.22
2023-01-03T02:22:07.839Z,6.22
2023-01-03T02:22:39.626Z,6.27
2023-01-03T02:23:23.864Z,6.27
2023-01-03T02:23:55.649Z,6.27
2023-01-03T02:24:27.453Z,6.27
2023-01-03T02:24:59.540Z,6.27
2023-01-03T02:25:31.777Z,6.27
2023-01-03T02:26:04.477Z,6.22
2023-01-03T02:26:35.572Z,6.27
2023-01-03T02:26:51.682Z,6.27
2023-01-03T02:27:35.579Z,6.27
2023-01-03T02:28:07.191Z,6.27
2023-01-03T02:28:39.399Z,6.27
2023-01-03T02:29:11.312Z,6.27
2023-01-03T02:29:43.285Z,6.27
2023-01-03T02:30:17.060Z,6.27
2023-01-03T02:30:47.196Z,6.27
2023-01-03T02:31:19.328Z,6.22
2023-01-03T02:31:51.380Z,6.22
2023-01-03T02:32:23.421Z,6.22
2023-01-03T02:32:55.278Z,6.22
2023-01-03T02:33:27.152Z,6.11
2023-01-03T02:33:59.247Z,6.11
2023-01-03T02:34:31.172Z,6.11
2023-01-03T02:35:04.539Z,6.11
2023-01-03T02:35:35.071Z,6.00
2023-01-03T02:36:06.993Z,6.00
2023-01-03T02:36:39.144Z,6.00
2023-01-03T02:37:10.886Z,6.00
2023-01-03T02:37:42.965Z,6.00
2023-01-03T02:38:15.123Z,6.00
2023-01-03T02:38:47.051Z,6.00
2023-01-03T02:39:23.498Z,6.00
2023-01-03T02:39:50.937Z,6.00
2023-01-03T02:40:23.289Z,6.00
2023-01-03T02:40:54.980Z,6.00
2023-01-03T02:41:26.858Z,6.00
2023-01-03T02:41:58.753Z,6.00
2023-01-03T02:42:30.816Z,6.00
2023-01-03T02:43:04.125Z,6.00
2023-01-03T02:43:34.606Z,6.00
2023-01-03T02:43:50.840Z,6.00
2023-01-03T02:44:34.750Z,6.00
2023-01-03T02:45:07.650Z,6.00
2023-01-03T02:45:38.727Z,6.00
2023-01-03T02:46:10.608Z,6.00
2023-01-03T02:46:42.827Z,6.00
2023-01-03T02:47:14.758Z,6.00
2023-01-03T02:47:46.647Z,6.00
2023-01-03T02:48:18.561Z,6.00
2023-01-03T02:48:50.536Z,6.00
2023-01-03T02:49:22.667Z,6.00
2023-01-03T02:49:54.752Z,6.00
2023-01-03T02:50:26.702Z,6.00
2023-01-03T02:50:58.367Z,6.00
2023-01-03T02:51:30.516Z,5.88
2023-01-03T02:52:03.411Z,5.88
2023-01-03T02:52:34.412Z,5.88
2023-01-03T02:52:50.455Z,5.88
2023-01-03T02:53:22.428Z,5.88
2023-01-03T02:53:38.406Z,5.88
2023-01-03T02:54:10.434Z,5.88
2023-01-03T02:54:42.464Z,5.88
2023-01-03T02:55:14.557Z,5.88
2023-01-03T02:55:46.199Z,5.88
2023-01-03T02:56:18.290Z,5.88
2023-01-03T02:56:50.160Z,5.88
2023-01-03T02:57:06.267Z,5.88
2023-01-03T02:57:38.152Z,5.77
2023-01-03T02:58:22.184Z,5.77
2023-01-03T02:58:54.174Z,5.77
2023-01-03T02:59:26.270Z,5.77
2023-01-03T02:59:58.110Z,5.77
2023-01-03T03:00:30.541Z,5.77
2023-01-03T03:01:02.793Z,5.72
2023-01-03T03:01:34.162Z,5.72
2023-01-03T03:02:06.142Z,5.72
2023-01-03T03:02:38.300Z,5.72
2023-01-03T03:03:10.037Z,5.72
2023-01-03T03:03:42.042Z,5.72
2023-01-03T03:04:13.865Z,5.72
2023-01-03T03:04:45.889Z,5.72
2023-01-03T03:05:18.094Z,5.77
2023-01-03T03:05:49.686Z,5.77
2023-01-03T03:06:06.075Z,5.77
2023-01-03T03:06:49.764Z,5.77
2023-01-03T03:07:21.876Z,5.72
2023-01-03T03:07:53.758Z,5.72
2023-01-03T03:08:25.714Z,5.61
2023-01-03T03:08:57.814Z,5.61
2023-01-03T03:09:29.737Z,5.61
2023-01-03T03:10:03.104Z,5.61
2023-01-03T03:10:33.769Z,5.61
2023-01-03T03:11:05.719Z,5.50
2023-01-03T03:11:37.722Z,5.50
2023-01-03T03:12:09.473Z,5.50
2023-01-03T03:12:41.737Z,5.50
2023-01-03T03:13:13.558Z,5.50
2023-01-03T03:13:45.792Z,5.50
2023-01-03T03:14:17.389Z,5.50
2023-01-03T03:14:49.408Z,5.50
2023-01-03T03:15:21.905Z,5.50
2023-01-03T03:15:53.829Z,5.50
2023-01-03T03:16:25.489Z,5.50
2023-01-03T03:16:57.402Z,5.50
2023-01-03T03:17:29.458Z,5.50
2023-01-03T03:18:01.569Z,5.50
2023-01-03T03:18:33.401Z,5.50
2023-01-03T03:18:49.357Z,5.50
2023-01-03T03:19:33.307Z,5.50
2023-01-03T03:20:06.971Z,5.50
2023-01-03T03:20:37.183Z,5.50
2023-01-03T03:21:09.155Z,5.38
2023-01-03T03:21:41.102Z,5.38
2023-01-03T03:22:13.201Z,5.38
2023-01-03T03:22:45.243Z,5.38
2023-01-03T03:23:16.964Z,5.38
2023-01-03T03:23:49.158Z,5.38
2023-01-03T03:24:21.108Z,5.38
2023-01-03T03:24:53.169Z,5.38
2023-01-03T03:25:25.298Z,5.38
2023-01-03T03:25:56.956Z,5.38
2023-01-03T03:26:28.890Z,5.27
2023-01-03T03:27:01.115Z,5.27
2023-01-03T03:27:32.975Z,5.27
2023-01-03T03:28:05.040Z,5.27
2023-01-03T03:28:36.842Z,5.27
2023-01-03T03:29:08.974Z,5.27
2023-01-03T03:29:40.681Z,5.27
2023-01-03T03:30:14.071Z,5.22
2023-01-03T03:30:45.066Z,5.22
2023-01-03T03:31:16.926Z,5.22
2023-01-03T03:31:48.921Z,5.22
2023-01-03T03:32:04.939Z,5.22
2023-01-03T03:32:36.603Z,5.27
2023-01-03T03:33:20.730Z,5.27
2023-01-03T03:33:52.728Z,5.27
2023-01-03T03:34:24.817Z,5.27
2023-01-03T03:34:56.580Z,5.27
2023-01-03T03:35:28.835Z,5.27
2023-01-03T03:36:00.635Z,5.27
2023-01-03T03:36:32.645Z,5.27
2023-01-03T03:36:48.781Z,5.27
2023-01-03T03:37:32.628Z,5.27
2023-01-03T03:38:04.879Z,5.27
2023-01-03T03:38:36.452Z,5.27
2023-01-03T03:39:08.501Z,5.27
2023-01-03T03:39:40.380Z,5.22
2023-01-03T03:40:12.930Z,5.22
2023-01-03T03:40:44.588Z,5.22
2023-01-03T03:41:16.460Z,5.22
2023-01-03T03:41:48.409Z,5.22
2023-01-03T03:42:20.333Z,5.22
2023-01-03T03:42:52.511Z,5.27
2023-01-03T03:43:24.478Z,5.27
2023-01-03T03:43:56.280Z,5.27
2023-01-03T03:44:28.461Z,5.27
2023-01-03T03:45:01.620Z,5.22
2023-01-03T03:45:32.783Z,5.22
2023-01-03T03:45:48.303Z,5.22
2023-01-03T03:46:20.022Z,5.22
2023-01-03T03:46:36.252Z,5.22
2023-01-03T03:47:08.121Z,5.22
2023-01-03T03:47:40.035Z,5.22
2023-01-03T03:48:12.349Z,5.22
2023-01-03T03:48:44.184Z,5.22
2023-01-03T03:49:16.151Z,5.22
2023-01-03T03:49:48.007Z,5.22
2023-01-03T03:50:20.206Z,5.22
2023-01-03T03:50:52.109Z,5.22
2023-01-03T03:51:24.067Z,5.22
2023-01-03T03:51:55.892Z,5.22
2023-01-03T03:52:27.891Z,5.22
2023-01-03T03:52:59.844Z,5.22
2023-01-03T03:53:31.754Z,5.22
2023-01-03T03:53:47.952Z,5.11
2023-01-03T03:54:31.726Z,5.00
2023-01-03T03:55:05.139Z,5.00
2023-01-03T03:55:35.931Z,5.00
2023-01-03T03:56:07.748Z,5.00
2023-01-03T03:56:39.672Z,4.88
2023-01-03T03:57:11.972Z,4.88
2023-01-03T03:57:43.751Z,4.88
2023-01-03T03:58:15.643Z,4.88
2023-01-03T03:58:47.603Z,4.88
2023-01-03T03:59:19.696Z,4.88
2023-01-03T03:59:51.524Z,4.88
2023-01-03T04:00:24.440Z,5.00
2023-01-03T04:00:55.672Z,4.88
2023-01-03T04:01:27.657Z,4.88
2023-01-03T04:01:59.651Z,4.88
2023-01-03T04:02:31.677Z,4.88
2023-01-03T04:02:47.833Z,4.88
2023-01-03T04:03:19.719Z,4.88
2023-01-03T04:03:35.564Z,4.88
2023-01-03T04:04:08.041Z,4.88
2023-01-03T04:04:39.525Z,4.88
2023-01-03T04:05:11.584Z,4.88
2023-01-03T04:05:43.717Z,4.88
2023-01-03T04:06:15.546Z,4.88
2023-01-03T04:06:47.178Z,4.88
2023-01-03T04:07:04.511Z,4.88
2023-01-03T04:07:35.132Z,4.88
2023-01-03T04:08:19.368Z,4.88
2023-01-03T04:08:51.215Z,4.77
2023-01-03T04:09:23.216Z,4.77
2023-01-03T04:09:55.436Z,4.77
2023-01-03T04:10:30.201Z,4.77
2023-01-03T04:10:58.945Z,4.77
2023-01-03T04:11:31.191Z,4.77
2023-01-03T04:11:47.147Z,4.77
2023-01-03T04:12:31.004Z,4.77
2023-01-03T04:13:04.246Z,4.77
2023-01-03T04:13:34.905Z,4.77
2023-01-03T04:13:51.004Z,4.77
2023-01-03T04:14:35.054Z,4.77
2023-01-03T04:15:07.856Z,4.77
2023-01-03T04:15:39.091Z,4.72
2023-01-03T04:16:10.894Z,4.72
2023-01-03T04:16:43.036Z,4.72
2023-01-03T04:17:14.897Z,4.72
2023-01-03T04:17:46.860Z,4.72
2023-01-03T04:18:18.808Z,4.61
2023-01-03T04:18:50.715Z,4.61
2023-01-03T04:19:22.920Z,4.61
2023-01-03T04:19:54.974Z,4.61
2023-01-03T04:20:26.865Z,4.61
2023-01-03T04:20:58.624Z,4.61
2023-01-03T04:21:30.647Z,4.61
2023-01-03T04:22:04.153Z,4.50
2023-01-03T04:22:34.715Z,4.50
2023-01-03T04:23:06.587Z,4.50
2023-01-03T04:23:38.584Z,4.50
2023-01-03T04:24:10.584Z,4.50
2023-01-03T04:24:42.575Z,4.61
2023-01-03T04:25:14.680Z,4.61
2023-01-03T04:25:46.479Z,4.50
2023-01-03T04:26:18.579Z,4.50
2023-01-03T04:26:50.238Z,4.50
2023-01-03T04:27:06.499Z,4.50
2023-01-03T04:27:38.497Z,4.50
2023-01-03T04:28:22.575Z,4.38
2023-01-03T04:28:54.656Z,4.38
2023-01-03T04:29:26.198Z,4.38
2023-01-03T04:29:58.276Z,4.38
2023-01-03T04:30:30.937Z,4.27
2023-01-03T04:31:03.046Z,4.27
2023-01-03T04:31:18.526Z,4.27
2023-01-03T04:31:50.235Z,4.27
2023-01-03T04:32:34.327Z,4.27
2023-01-03T04:33:06.216Z,4.27
2023-01-03T04:33:38.133Z,4.27
2023-01-03T04:34:10.065Z,4.22
2023-01-03T04:34:42.278Z,4.22
2023-01-03T04:35:14.758Z,4.11
2023-01-03T04:35:46.146Z,4.11
2023-01-03T04:36:02.617Z,4.11
2023-01-03T04:36:46.003Z,4.11
2023-01-03T04:37:02.608Z,4.11
2023-01-03T04:37:46.301Z,4.11
2023-01-03T04:38:18.202Z,4.11
2023-01-03T04:38:49.880Z,4.11
2023-01-03T04:39:22.279Z,4.11
2023-01-03T04:39:54.070Z,4.00
2023-01-03T04:40:26.228Z,4.00
2023-01-03T04:40:57.810Z,4.00
2023-01-03T04:41:29.776Z,4.00
2023-01-03T04:42:02.365Z,4.00
2023-01-03T04:42:33.986Z,4.00
2023-01-03T04:43:05.933Z,4.00
2023-01-03T04:43:37.744Z,4.00
2023-01-03T04:44:09.799Z,4.00
2023-01-03T04:44:41.856Z,4.00
2023-01-03T04:45:14.504Z,4.00
2023-01-03T04:45:45.820Z,4.00
2023-01-03T04:46:17.855Z,4.00
2023-01-03T04:46:52.959Z,4.00
2023-01-03T04:47:21.680Z,3.88
2023-01-03T04:47:53.515Z,3.88
2023-01-03T04:48:25.788Z,3.88
2023-01-03T04:48:57.409Z,3.88
2023-01-03T04:49:29.357Z,3.88
2023-01-03T04:49:45.758Z,3.88
2023-01-03T04:50:29.551Z,3.88
2023-01-03T04:51:01.747Z,3.88
2023-01-03T04:51:33.421Z,3.77
2023-01-03T04:52:05.719Z,3.77
2023-01-03T04:52:37.406Z,3.77
2023-01-03T04:53:09.430Z,3.77
2023-01-03T04:53:41.192Z,3.77
2023-01-03T04:54:13.388Z,3.77
2023-01-03T04:54:45.420Z,3.77
2023-01-03T04:55:17.542Z,3.77
2023-01-03T04:55:49.147Z,3.77
2023-01-03T04:56:21.052Z,3.77
2023-01-03T04:56:53.389Z,3.77
2023-01-03T04:57:25.407Z,3.77
2023-01-03T04:57:57.062Z,3.77
2023-01-03T04:58:29.136Z,3.77
2023-01-03T04:59:01.355Z,3.77
2023-01-03T04:59:33.096Z,3.72
2023-01-03T05:00:07.041Z,3.72
2023-01-03T05:00:37.059Z,3.72
2023-01-03T05:01:09.234Z,3.72
2023-01-03T05:01:41.248Z,3.61
2023-01-03T05:02:13.260Z,3.61
2023-01-03T05:02:45.066Z,3.61
2023-01-03T05:03:01.227Z,3.61
2023-01-03T05:03:32.945Z,3.61
2023-01-03T05:04:20.250Z,3.50
2023-01-03T05:04:48.815Z,3.50
2023-01-03T05:05:21.092Z,3.50
2023-01-03T05:05:53.215Z,3.50
2023-01-03T05:06:25.056Z,3.50
2023-01-03T05:06:56.633Z,3.50
2023-01-03T05:07:28.640Z,3.50
2023-01-03T05:07:44.979Z,3.50
2023-01-03T05:08:28.686Z,3.50
2023-01-03T05:09:00.787Z,3.61
2023-01-03T05:09:32.598Z,3.61
2023-01-03T05:10:05.583Z,3.61
2023-01-03T05:10:36.635Z,3.61
2023-01-03T05:11:08.666Z,3.61
2023-01-03T05:11:40.598Z,3.61
2023-01-03T05:12:12.725Z,3.61
2023-01-03T05:12:44.514Z,3.61
2023-01-03T05:13:16.663Z,3.61
2023-01-03T05:13:48.543Z,3.50
2023-01-03T05:14:20.461Z,3.50
2023-01-03T05:14:52.589Z,3.50
2023-01-03T05:15:25.217Z,3.50
2023-01-03T05:15:56.371Z,3.50
2023-01-03T05:16:28.402Z,3.50
2023-01-03T05:17:00.390Z,3.50
2023-01-03T05:17:32.487Z,3.50
2023-01-03T05:18:05.129Z,3.50
2023-01-03T05:18:36.282Z,3.50
2023-01-03T05:19:08.342Z,3.50
2023-01-03T05:19:45.295Z,3.50
2023-01-03T05:20:12.486Z,3.50
2023-01-03T05:20:44.320Z,3.50
2023-01-03T05:21:00.279Z,3.50
2023-01-03T05:21:32.296Z,3.50
2023-01-03T05:22:16.204Z,3.38
2023-01-03T05:22:47.994Z,3.38
2023-01-03T05:23:20.117Z,3.38
2023-01-03T05:23:52.358Z,3.38
2023-01-03T05:24:24.337Z,3.38
2023-01-03T05:24:56.164Z,3.38
2023-01-03T05:25:28.172Z,3.38
2023-01-03T05:25:44.263Z,3.38
2023-01-03T05:26:27.964Z,3.38
2023-01-03T05:26:59.856Z,3.38
2023-01-03T05:27:31.890Z,3.38
2023-01-03T05:28:04.692Z,3.38
2023-01-03T05:28:35.826Z,3.38
2023-01-03T05:29:08.017Z,3.38
2023-01-03T05:29:39.790Z,3.38
2023-01-03T05:30:13.143Z,3.38
2023-01-03T05:30:43.884Z,3.38
2023-01-03T05:31:15.962Z,3.38
2023-01-03T05:31:47.724Z,3.38
2023-01-03T05:32:19.909Z,3.38
2023-01-03T05:32:51.945Z,3.38
2023-01-03T05:33:24.083Z,3.38
2023-01-03T05:33:55.728Z,3.38
2023-01-03T05:34:27.512Z,3.38
2023-01-03T05:34:59.560Z,3.38
2023-01-03T05:35:32.717Z,3.38
2023-01-03T05:36:04.643Z,3.38
2023-01-03T05:36:35.425Z,3.38
2023-01-03T05:37:07.532Z,3.38
2023-01-03T05:37:39.535Z,3.38
2023-01-03T05:38:11.266Z,3.38
2023-01-03T05:38:43.535Z,3.38
2023-01-03T05:38:59.426Z,3.38
2023-01-03T05:39:31.381Z,3.38
2023-01-03T05:40:15.905Z,3.38
2023-01-03T05:40:47.279Z,3.27
2023-01-03T05:41:22.665Z,3.27
2023-01-03T05:41:51.268Z,3.27
2023-01-03T05:42:23.512Z,3.38
2023-01-03T05:42:55.237Z,3.38
2023-01-03T05:43:11.337Z,3.38
2023-01-03T05:43:43.332Z,3.38
2023-01-03T05:44:27.259Z,3.38
2023-01-03T05:44:59.257Z,3.38
2023-01-03T05:45:31.573Z,3.38
2023-01-03T05:46:04.203Z,3.38
2023-01-03T05:46:35.361Z,3.27
2023-01-03T05:47:07.138Z,3.27
2023-01-03T05:47:39.082Z,3.27
2023-01-03T05:48:11.082Z,3.22
2023-01-03T05:48:43.079Z,3.22
2023-01-03T05:49:15.211Z,3.22
2023-01-03T05:49:46.956Z,3.22
2023-01-03T05:50:19.229Z,3.22
2023-01-03T05:50:51.011Z,3.22
2023-01-03T05:51:23.251Z,3.22
2023-01-03T05:51:55.008Z,3.11
2023-01-03T05:52:26.954Z,3.11
2023-01-03T05:52:58.866Z,3.11
2023-01-03T05:53:30.679Z,3.11
2023-01-03T05:54:03.836Z,3.11
2023-01-03T05:54:34.925Z,3.11
2023-01-03T05:55:12.661Z,3.11
2023-01-03T05:55:38.814Z,3.11
2023-01-03T05:56:10.677Z,3.11
2023-01-03T05:56:42.856Z,3.00
2023-01-03T05:57:14.798Z,3.00
2023-01-03T05:57:46.590Z,3.00
2023-01-03T05:58:18.567Z,3.00
2023-01-03T05:58:50.549Z,3.00
2023-01-03T05:59:22.885Z,3.00
2023-01-03T05:59:54.585Z,3.00
2023-01-03T06:00:26.876Z,3.00
2023-01-03T06:00:42.774Z,3.00
2023-01-03T06:01:31.508Z,3.00
2023-01-03T06:01:58.639Z,3.00
2023-01-03T06:02:30.268Z,3.00
2023-01-03T06:03:03.202Z,3.00
2023-01-03T06:03:18.464Z,3.00
2023-01-03T06:03:50.552Z,3.00
2023-01-03T06:04:34.797Z,3.00
2023-01-03T06:05:06.520Z,3.00
2023-01-03T06:05:38.343Z,3.00
2023-01-03T06:06:10.349Z,3.00
2023-01-03T06:06:42.516Z,3.00
2023-01-03T06:07:14.370Z,3.00
2023-01-03T06:07:46.228Z,2.88
2023-01-03T06:08:18.172Z,2.88
2023-01-03T06:08:50.263Z,2.88
2023-01-03T06:09:22.535Z,2.88
2023-01-03T06:09:54.306Z,2.88
2023-01-03T06:10:29.385Z,2.88
2023-01-03T06:10:58.150Z,2.88
2023-01-03T06:11:30.063Z,2.77
2023-01-03T06:12:02.884Z,2.77
2023-01-03T06:12:34.410Z,2.77
2023-01-03T06:13:06.134Z,2.77
2023-01-03T06:13:37.890Z,2.77
2023-01-03T06:14:09.960Z,2.77
2023-01-03T06:14:41.935Z,2.77
2023-01-03T06:15:15.616Z,2.77
2023-01-03T06:15:45.860Z,2.77
2023-01-03T06:16:24.351Z,2.77
2023-01-03T06:16:50.004Z,2.77
2023-01-03T06:17:22.055Z,2.77
2023-01-03T06:17:53.995Z,2.77
2023-01-03T06:18:25.920Z,2.77
2023-01-03T06:18:57.841Z,2.77
2023-01-03T06:19:29.854Z,2.77
2023-01-03T06:20:03.344Z,2.77
2023-01-03T06:20:33.832Z,2.77
2023-01-03T06:21:06.017Z,2.77
2023-01-03T06:21:37.746Z,2.77
2023-01-03T06:22:11.185Z,2.77
2023-01-03T06:22:41.681Z,2.77
2023-01-03T06:22:57.791Z,2.77
2023-01-03T06:23:41.704Z,2.77
2023-01-03T06:24:13.768Z,2.88
2023-01-03T06:24:45.700Z,2.88
2023-01-03T06:25:17.803Z,2.88
2023-01-03T06:25:49.423Z,2.88
2023-01-03T06:26:21.393Z,2.88
2023-01-03T06:26:53.598Z,2.88
2023-01-03T06:27:25.587Z,2.77
2023-01-03T06:27:57.280Z,2.77
2023-01-03T06:28:29.400Z,2.77
2023-01-03T06:29:01.761Z,2.77
2023-01-03T06:29:33.331Z,2.77
2023-01-03T06:30:07.291Z,2.77
2023-01-03T06:30:37.424Z,2.77
2023-01-03T06:31:09.350Z,2.77
2023-01-03T06:31:41.338Z,2.77
2023-01-03T06:31:57.302Z,2.77
2023-01-03T06:32:29.215Z,2.77
2023-01-03T06:33:13.460Z,2.77
2023-01-03T06:33:45.111Z,2.77
2023-01-03T06:34:17.148Z,2.77
2023-01-03T06:34:49.175Z,2.77
2023-01-03T06:35:21.398Z,2.77
2023-01-03T06:35:53.451Z,2.72
2023-01-03T06:36:25.123Z,2.72
2023-01-03T06:36:41.195Z,2.72
2023-01-03T06:37:25.241Z,2.72
2023-01-03T06:37:56.852Z,2.61
2023-01-03T06:38:13.144Z,2.61
2023-01-03T06:38:45.223Z,2.61
2023-01-03T06:39:28.815Z,2.61
2023-01-03T06:40:01.838Z,2.50
2023-01-03T06:40:39.388Z,2.50
2023-01-03T06:41:09.831Z,2.50
2023-01-03T06:41:36.782Z,2.61
2023-01-03T06:42:08.894Z,2.61
2023-01-03T06:42:40.739Z,2.61
2023-01-03T06:42:56.759Z,2.61
2023-01-03T06:43:40.773Z,2.61
2023-01-03T06:44:12.720Z,2.61
2023-01-03T06:44:44.935Z,2.61
2023-01-03T06:45:18.024Z,2.61
2023-01-03T06:45:48.722Z,2.61
2023-01-03T06:46:20.742Z,2.61
2023-01-03T06:46:56.568Z,2.61
2023-01-03T06:47:24.652Z,2.61
2023-01-03T06:47:56.558Z,2.61
2023-01-03T06:48:28.547Z,2.61
2023-01-03T06:49:00.576Z,2.61
2023-01-03T06:49:32.762Z,2.61
2023-01-03T06:50:05.501Z,2.61
2023-01-03T06:50:36.489Z,2.61
2023-01-03T06:51:08.602Z,2.61
2023-01-03T06:51:40.466Z,2.72
2023-01-03T06:51:56.508Z,2.72
2023-01-03T06:52:28.507Z,2.72
2023-01-03T06:53:12.519Z,2.72
2023-01-03T06:53:44.554Z,2.72
2023-01-03T06:54:16.079Z,2.61
2023-01-03T06:54:48.220Z,2.61
2023-01-03T06:55:24.887Z,2.50
2023-01-03T06:55:56.914Z,2.50
2023-01-03T06:56:24.210Z,2.50
2023-01-03T06:56:40.312Z,2.38
2023-01-03T06:57:26.368Z,2.38
2023-01-03T06:57:56.162Z,2.38
2023-01-03T06:58:28.208Z,2.38
2023-01-03T06:58:59.979Z,2.38
2023-01-03T06:59:37.303Z,2.50
2023-01-03T07:00:06.686Z,2.50